»·PEaware :: BOE561 KBUR-KSMF

BOE561 :: KBUR-KSMF

FLIGHT INFORMATION

Flight Status: Arrived
Operator:
Boeing Commercial Airplane Group
More flights by this operator :: More flights under this callsign
Pilot: Ben F. (2808)
Aircraft: BOEING 737-200
(B732)
More flights by this aircraft type
Origin: KBUR Bob Hope-Burbank
United States
Destination: KSMF Sacramento Intl
United States
More flights between these airports :: More routes between these airports
Route: +VNY3 GMN V23 CZQ SAC
File this flight plan on PilotEdge
Remarks:
Altitude:
(Current/Filed)
32,000ft
Speed:
(Current/Filed)
435kts
Departed: 22-Apr-18 07:39 AM
Arrived: 22-Apr-18 08:44 AM
Distance/Time
Traveled:
311nm/1:05
Distance/Time
To Go:
Arrived

Flight Plot

Page will automatically refresh every two minutes.

Flight plan parsing failed; only flown route is shown


Map Options




Map Legend


Flown Route
Filed Route
Departure Airport
Arrival Airport
Navaid (VOR, NDB)
Fix

Horizontal Profiles

Position Reports

Time Latitude Longitude Heading Altitude Ground
Speed
22-Apr-18 07:14 34.200036 -118.358592 263 785ft 0kts
22-Apr-18 07:15 34.200036 -118.358592 263 785ft 0kts
22-Apr-18 07:16 34.200036 -118.358592 263 785ft 0kts
22-Apr-18 07:19 34.200036 -118.358592 263 785ft 0kts
22-Apr-18 07:20 34.200036 -118.358592 263 785ft 0kts
22-Apr-18 07:21 34.200036 -118.358592 263 785ft 0kts
22-Apr-18 07:22 34.200036 -118.358592 263 785ft 0kts
22-Apr-18 07:23 34.200036 -118.358592 263 785ft 0kts
22-Apr-18 07:24 34.200036 -118.358592 263 785ft 0kts
22-Apr-18 07:25 34.200036 -118.358592 263 785ft 0kts
22-Apr-18 07:26 34.200036 -118.358592 263 785ft 0kts
22-Apr-18 07:27 34.200036 -118.358592 263 785ft 0kts
22-Apr-18 07:28 34.200035 -118.358592 263 785ft 0kts
22-Apr-18 07:29 34.200035 -118.358592 263 785ft 0kts
22-Apr-18 07:30 34.199938 -118.358844 215 785ft 5kts
22-Apr-18 07:31 34.199645 -118.358600 113 785ft 0kts
22-Apr-18 07:32 34.199645 -118.358600 113 785ft 0kts
22-Apr-18 07:33 34.200000 -118.358198 351 785ft 14kts
22-Apr-18 07:34 34.204286 -118.359385 347 785ft 16kts
22-Apr-18 07:35 34.208740 -118.360608 347 785ft 16kts
22-Apr-18 07:36 34.211925 -118.361375 29 785ft 0kts
22-Apr-18 07:37 34.211967 -118.361341 36 785ft 3kts
22-Apr-18 07:38 34.207045 -118.359007 167 785ft 102kts
22-Apr-18 07:39 34.165112 -118.366391 224 2570ft 203kts
22-Apr-18 07:40 34.126947 -118.422929 266 4205ft 241kts
22-Apr-18 07:41 34.174652 -118.468114 351 7164ft 264kts
22-Apr-18 07:42 34.249673 -118.480910 352 10054ft 286kts
22-Apr-18 07:43 34.323376 -118.522660 318 12037ft 327kts
22-Apr-18 07:44 34.390752 -118.596538 318 14472ft 339kts
22-Apr-18 07:45 34.462608 -118.662411 335 16584ft 348kts
22-Apr-18 07:46 34.548357 -118.709976 334 18472ft 357kts
22-Apr-18 07:47 34.637953 -118.761899 334 20169ft 365kts
22-Apr-18 07:48 34.729766 -118.815627 334 21690ft 373kts
22-Apr-18 07:49 34.824747 -118.865705 342 23020ft 380kts
22-Apr-18 07:50 34.926410 -118.901236 343 24122ft 389kts
22-Apr-18 07:51 35.031483 -118.937290 342 24880ft 404kts
22-Apr-18 07:52 35.137296 -118.973612 342 25821ft 410kts
22-Apr-18 07:53 35.243466 -119.010132 342 26667ft 415kts
22-Apr-18 07:54 35.353190 -119.047982 341 27436ft 419kts
22-Apr-18 07:55 35.461567 -119.091759 322 28079ft 417kts
22-Apr-18 07:56 35.518843 -119.208489 292 28791ft 410kts
22-Apr-18 07:57 35.575074 -119.325358 323 29468ft 418kts
22-Apr-18 07:58 35.685175 -119.366178 342 30156ft 423kts
22-Apr-18 07:59 35.796677 -119.405252 341 30734ft 424kts
22-Apr-18 08:00 35.908482 -119.443251 341 31272ft 426kts
22-Apr-18 08:01 36.019276 -119.483781 341 31856ft 426kts
22-Apr-18 08:02 36.128222 -119.524387 341 32083ft 433kts
22-Apr-18 08:03 36.241919 -119.566934 341 32082ft 444kts
22-Apr-18 08:04 36.359072 -119.610919 341 32080ft 448kts
22-Apr-18 08:05 36.474219 -119.654760 340 32082ft 448kts
22-Apr-18 08:06 36.588221 -119.699561 339 32071ft 449kts
22-Apr-18 08:07 36.704688 -119.745573 339 32062ft 450kts
22-Apr-18 08:08 36.821078 -119.790751 340 32072ft 450kts
22-Apr-18 08:09 36.925381 -119.861450 318 32069ft 440kts
22-Apr-18 08:10 37.016129 -119.957577 316 32067ft 437kts
22-Apr-18 08:11 37.103315 -120.052318 315 32064ft 435kts
22-Apr-18 08:12 37.188685 -120.145454 315 31443ft 436kts
22-Apr-18 08:13 37.275929 -120.240906 316 29049ft 424kts
22-Apr-18 08:14 37.361100 -120.334380 316 26825ft 410kts
22-Apr-18 08:15 37.438313 -120.419358 316 24786ft 399kts
22-Apr-18 08:16 37.517183 -120.506413 316 22710ft 387kts
22-Apr-18 08:17 37.593900 -120.591333 316 20690ft 376kts
22-Apr-18 08:18 37.666921 -120.672372 316 20058ft 374kts
22-Apr-18 08:19 37.731462 -120.744148 316 19172ft 367kts
22-Apr-18 08:20 37.803496 -120.824507 316 17090ft 357kts
22-Apr-18 08:21 37.874750 -120.904203 316 15072ft 347kts
22-Apr-18 08:22 37.944205 -120.982087 317 13120ft 337kts
22-Apr-18 08:23 38.009917 -121.055957 317 11356ft 324kts
22-Apr-18 08:24 38.072481 -121.126446 317 10263ft 296kts
22-Apr-18 08:25 38.126761 -121.187726 318 9244ft 272kts
22-Apr-18 08:26 38.172113 -121.238987 318 8066ft 270kts
22-Apr-18 08:27 38.218654 -121.291677 318 7986ft 263kts
22-Apr-18 08:28 38.270527 -121.350515 318 7991ft 261kts
22-Apr-18 08:29 38.322296 -121.409372 318 7996ft 259kts
22-Apr-18 08:30 38.374436 -121.468780 318 7297ft 262kts
22-Apr-18 08:31 38.428161 -121.525836 332 6025ft 257kts
22-Apr-18 08:32 38.487057 -121.563087 333 6002ft 239kts
22-Apr-18 08:33 38.544933 -121.599649 333 5753ft 241kts
22-Apr-18 08:34 38.604015 -121.637450 333 4498ft 246kts
22-Apr-18 08:35 38.662106 -121.673865 346 3997ft 248kts
22-Apr-18 08:36 38.718417 -121.683140 353 3674ft 254kts
22-Apr-18 08:37 38.781266 -121.687337 3 2980ft 207kts
22-Apr-18 08:38 38.820940 -121.649759 88 3024ft 209kts
22-Apr-18 08:39 38.799631 -121.586761 174 2099ft 196kts
22-Apr-18 08:40 38.752959 -121.598833 186 1069ft 152kts
22-Apr-18 08:41 38.715589 -121.600888 181 174ft 133kts
22-Apr-18 08:42 38.689516 -121.601383 180 32ft 50kts
22-Apr-18 08:43 38.683855 -121.599729 89 32ft 12kts
22-Apr-18 08:44 38.682614 -121.598322 180 32ft 8kts
22-Apr-18 08:45 38.681410 -121.596913 175 32ft 0kts
22-Apr-18 08:46 38.681410 -121.596913 175 32ft 0kts
22-Apr-18 08:47 38.681410 -121.596913 175 32ft 0kts

Navigation Log

Ident Type
Flight plan parsing failed, navigation log unavailable